Terminal Aerodrome Forecast
Issued by NWS Grand Forks, ND

Home | Current Version | Previous Version | Text Only | Print | Product List | Glossary On
Versions: 1 2 3 4 5 6 7 8 9 10 11 12 13 14 15 16 17 18 19 20
000
FTUS43 KFGF 291508 CCA
TAFGFK
TAF COR
KGFK 291508Z 2915/3012 VRB03KT P6SM BKN250
      TEMPO 2915/2916 BKN006
     FM291600 32006KT P6SM BKN015
     FM291700 32006KT P6SM BKN025
     FM291900 31007KT P6SM BKN060=

USA.gov is the U.S. government's official web portal to all federal, state and local government web resources and services.